Time;durP1;ratioP1;P1;durP2;ratioP2;P2;SDS_P1;SDS_P2;PMS_P1;PMS_P2;Temp;Humidity;BMP_temperature;BMP_pressure;BME280_temperature;BME280_humidity;BME280_pressure;Samples;Min_cycle;Max_cycle;Signal;HPM_P1;HPM_P2
2021/11/16 00:01:39;;;;;;;12.63;9.73;;;;;;;11.73;49.50;103471.27;1731221;81;21059;-54
2021/11/16 00:04:07;;;;;;;13.30;10.43;;;;;;;11.72;48.91;103479.97;1732501;81;21023;-57
2021/11/16 00:06:34;;;;;;;17.85;10.82;;;;;;;11.70;49.09;103475.16;1732404;81;21424;-53
2021/11/16 00:09:02;;;;;;;15.25;10.35;;;;;;;11.66;49.22;103482.06;1731708;81;21527;-54
2021/11/16 00:11:29;;;;;;;15.80;10.63;;;;;;;11.63;49.73;103468.03;1732687;81;21030;-53
2021/11/16 00:13:57;;;;;;;14.75;9.58;;;;;;;11.62;50.05;103483.24;1734119;81;21074;-53
2021/11/16 00:16:24;;;;;;;14.35;10.55;;;;;;;11.60;49.65;103466.27;1734556;81;21098;-53
2021/11/16 00:18:57;;;;;;;16.12;10.45;;;;;;;11.59;49.90;103467.11;1733623;81;21129;-51
2021/11/16 00:21:19;;;;;;;17.23;10.15;;;;;;;11.57;50.06;103473.14;1731809;81;21054;-53
2021/11/16 00:23:52;;;;;;;17.25;10.60;;;;;;;11.57;50.51;103478.36;1738452;81;21050;-54
2021/11/16 00:26:14;;;;;;;11.45;9.70;;;;;;;11.57;50.02;103476.64;1732948;82;21514;-53
2021/11/16 00:28:41;;;;;;;14.23;9.43;;;;;;;11.57;49.71;103479.25;1734897;81;21492;-53
2021/11/16 00:31:08;;;;;;;17.27;9.45;;;;;;;11.58;49.40;103477.52;1733768;81;21487;-53
2021/11/16 00:33:34;;;;;;;16.55;9.50;;;;;;;11.58;49.62;103460.58;1732285;81;21531;-53
2021/11/16 00:36:01;;;;;;;15.15;9.98;;;;;;;11.58;49.85;103472.31;1731168;81;21524;-50
2021/11/16 00:38:27;;;;;;;15.55;9.63;;;;;;;11.58;50.03;103469.25;1731262;81;21018;-54
2021/11/16 00:40:54;;;;;;;11.57;9.30;;;;;;;11.56;50.14;103467.50;1731670;81;21081;-53
2021/11/16 00:43:21;;;;;;;15.65;9.05;;;;;;;11.55;50.37;103461.81;1733953;81;21022;-53
2021/11/16 00:45:47;;;;;;;12.35;8.98;;;;;;;11.56;50.70;103468.80;1695713;84;21038;-53
2021/11/16 00:48:17;;;;;;;12.70;8.65;;;;;;;11.56;50.44;103470.10;1700229;84;21002;-54
2021/11/16 00:50:46;;;;;;;12.75;8.88;;;;;;;11.55;50.78;103469.63;1688455;84;21543;-54
2021/11/16 00:53:12;;;;;;;13.40;8.28;;;;;;;11.55;50.27;103460.50;1694861;84;21038;-54
2021/11/16 00:55:39;;;;;;;12.15;7.97;;;;;;;11.54;50.02;103460.07;1701187;84;21013;-54
2021/11/16 00:58:06;;;;;;;17.30;8.73;;;;;;;11.54;50.01;103455.70;1699104;84;21041;-53
2021/11/16 01:00:32;;;;;;;11.10;8.68;;;;;;;11.54;50.23;103461.38;1699531;83;20986;-56
2021/11/16 01:02:59;;;;;;;11.80;8.48;;;;;;;11.56;50.13;103462.28;1700177;84;21042;-54
2021/11/16 01:05:25;;;;;;;14.33;9.10;;;;;;;11.55;50.44;103469.22;1701130;84;21024;-53
2021/11/16 01:07:52;;;;;;;24.45;9.90;;;;;;;11.56;50.57;103462.28;1700898;84;21006;-55
2021/11/16 01:10:20;;;;;;;14.98;9.40;;;;;;;11.54;50.46;103465.28;1698603;84;21494;-53
2021/11/16 01:12:47;;;;;;;13.65;8.53;;;;;;;11.54;51.18;103460.92;1698198;84;21014;-53
2021/11/16 01:15:14;;;;;;;12.43;8.90;;;;;;;11.55;51.12;103460.50;1697952;84;21058;-53
2021/11/16 01:17:41;;;;;;;10.32;7.72;;;;;;;11.56;51.04;103466.19;1697880;84;21030;-53
2021/11/16 01:20:10;;;;;;;14.40;9.28;;;;;;;11.54;50.46;103457.47;1698653;84;21049;-54
2021/11/16 01:22:37;;;;;;;11.25;7.55;;;;;;;11.54;50.78;103466.59;1700174;83;21013;-52
2021/11/16 01:25:05;;;;;;;13.60;8.25;;;;;;;11.56;50.89;103453.16;1700766;84;21042;-54
2021/11/16 01:27:35;;;;;;;15.15;7.50;;;;;;;11.57;50.87;103455.77;1700444;84;20982;-54
2021/11/16 01:30:02;;;;;;;13.75;9.00;;;;;;;11.58;50.97;103461.88;1704689;84;20979;-53
2021/11/16 01:34:58;;;;;;;17.75;8.50;;;;;;;11.57;51.13;103453.59;1689214;84;21097;-53
2021/11/16 01:37:25;;;;;;;11.43;7.65;;;;;;;11.54;51.26;103458.77;1699621;83;21502;-54
2021/11/16 01:39:51;;;;;;;11.85;8.30;;;;;;;11.55;50.98;103468.33;1700810;84;21562;-53
2021/11/16 01:42:20;;;;;;;11.12;6.97;;;;;;;11.55;50.40;103469.63;1701493;84;21030;-54
2021/11/16 01:44:47;;;;;;;14.13;7.33;;;;;;;11.56;50.37;103466.19;1706776;84;21089;-53
2021/11/16 01:47:15;;;;;;;9.53;7.12;;;;;;;11.56;50.69;103464.89;1693840;84;21026;-52
2021/11/16 01:49:41;;;;;;;15.30;7.92;;;;;;;11.55;50.61;103463.11;1697693;83;21053;-54
2021/11/16 01:52:08;;;;;;;15.65;6.92;;;;;;;11.56;51.08;103471.41;1700912;84;21068;-54
2021/11/16 01:54:35;;;;;;;13.70;7.15;;;;;;;11.58;51.04;103464.48;1736157;81;20999;-54
2021/11/16 01:57:03;;;;;;;16.52;7.70;;;;;;;11.58;50.88;103469.70;1733832;81;21022;-53
2021/11/16 01:59:30;;;;;;;8.18;6.37;;;;;;;11.59;50.46;103474.05;1732638;81;21502;-53
2021/11/16 02:01:57;;;;;;;10.82;7.15;;;;;;;11.59;50.15;103471.44;1732617;81;21085;-53
2021/11/16 02:04:25;;;;;;;10.80;6.67;;;;;;;11.58;50.17;103477.52;1693789;84;20995;-54
2021/11/16 02:06:51;;;;;;;12.95;8.03;;;;;;;11.59;50.28;103481.88;1693976;83;21046;-54
2021/11/16 02:09:18;;;;;;;11.25;6.62;;;;;;;11.58;50.19;103485.34;1699919;83;21022;-54
2021/11/16 02:11:45;;;;;;;10.35;6.17;;;;;;;11.56;50.23;103480.53;1700311;83;21027;-54
2021/11/16 02:14:16;;;;;;;8.20;6.12;;;;;;;11.55;50.16;103482.25;1700787;84;21502;-53
2021/11/16 02:16:43;;;;;;;12.63;6.90;;;;;;;11.55;49.84;103474.84;1686292;84;21510;-53
2021/11/16 02:19:13;;;;;;;11.12;7.42;;;;;;;11.54;49.72;103474.41;1697674;83;21031;-53
2021/11/16 02:21:40;;;;;;;9.80;7.00;;;;;;;11.52;49.97;103477.42;1716348;82;21527;-53
2021/11/16 02:24:07;;;;;;;11.25;6.92;;;;;;;11.49;49.98;103476.94;1735507;81;21555;-53
2021/11/16 02:26:34;;;;;;;16.05;7.03;;;;;;;11.48;50.20;103475.16;1735049;81;20968;-54
2021/11/16 02:29:02;;;;;;;15.48;7.00;;;;;;;11.48;50.07;103479.95;1731962;81;22084;-54
2021/11/16 02:31:29;;;;;;;12.90;6.90;;;;;;;11.48;50.12;103482.56;1731941;81;21488;-54
2021/11/16 02:33:55;;;;;;;12.15;6.67;;;;;;;11.48;50.12;103478.22;1731280;81;21511;-53
2021/11/16 02:36:22;;;;;;;9.38;6.60;;;;;;;11.45;50.02;103487.75;1730531;81;21507;-53
2021/11/16 02:38:50;;;;;;;11.08;6.65;;;;;;;11.44;49.81;103485.97;1735123;81;21467;-54
2021/11/16 02:41:16;;;;;;;13.30;6.12;;;;;;;11.41;49.53;103479.41;1731012;81;21058;-54
2021/11/16 02:43:43;;;;;;;9.03;6.55;;;;;;;11.38;49.36;103484.56;1700492;84;21565;-53
2021/11/16 02:46:11;;;;;;;9.45;5.72;;;;;;;11.34;49.39;103484.05;1688508;84;21042;-53
2021/11/16 02:48:37;;;;;;;10.58;6.03;;;;;;;11.33;49.23;103487.49;1698534;84;21014;-54
2021/11/16 02:51:11;;;;;;;10.53;6.33;;;;;;;11.32;49.20;103490.97;1698920;83;20992;-54
2021/11/16 02:53:38;;;;;;;16.15;7.05;;;;;;;11.29;49.63;103492.20;1696143;84;20995;-54
2021/11/16 02:56:06;;;;;;;11.78;5.92;;;;;;;11.27;49.91;103489.98;1698021;83;21025;-54
2021/11/16 02:58:32;;;;;;;10.58;6.03;;;;;;;11.25;49.65;103495.59;1697549;83;21062;-53
2021/11/16 03:01:07;;;;;;;11.43;5.55;;;;;;;11.25;49.60;103498.66;1698171;84;20990;-53
2021/11/16 03:03:37;;;;;;;9.95;5.90;;;;;;;11.21;49.65;103489.88;1697680;84;21515;-53
2021/11/16 03:06:04;;;;;;;8.50;5.20;;;;;;;11.20;49.71;103496.38;1699166;84;21062;-53
2021/11/16 03:08:31;;;;;;;8.90;5.58;;;;;;;11.17;49.58;103493.27;1700834;84;21108;-50
2021/11/16 03:11:00;;;;;;;9.10;5.53;;;;;;;11.17;49.80;103495.88;1700904;84;21084;-53
2021/11/16 03:13:29;;;;;;;8.48;5.90;;;;;;;11.16;49.68;103496.75;1696948;84;21034;-52
2021/11/16 03:15:56;;;;;;;8.78;5.10;;;;;;;11.13;49.70;103491.45;1699487;84;21526;-53
2021/11/16 03:18:22;;;;;;;11.18;5.85;;;;;;;11.15;49.82;103496.27;1698347;84;21502;-54
2021/11/16 03:20:49;;;;;;;8.58;5.55;;;;;;;11.14;49.62;103494.54;1697841;83;21118;-53
2021/11/16 03:23:22;;;;;;;10.03;5.37;;;;;;;11.15;49.25;103497.58;1698084;84;21006;-54
2021/11/16 03:25:51;;;;;;;11.30;5.75;;;;;;;11.12;49.39;103493.63;1697799;84;21014;-55
2021/11/16 03:28:17;;;;;;;12.82;6.08;;;;;;;11.11;49.56;103490.55;1695073;84;20983;-54
2021/11/16 03:30:44;;;;;;;8.23;5.60;;;;;;;11.09;49.52;103494.86;1694600;84;21070;-53
2021/11/16 03:33:11;;;;;;;9.63;5.60;;;;;;;11.07;49.36;103495.25;1700768;84;21077;-53
2021/11/16 03:35:38;;;;;;;10.08;5.60;;;;;;;11.07;49.39;103490.45;1698804;84;20998;-53
2021/11/16 03:38:05;;;;;;;8.38;5.28;;;;;;;11.07;49.32;103490.45;1699191;83;21486;-53
2021/11/16 03:40:34;;;;;;;11.05;6.12;;;;;;;11.06;49.46;103484.39;1700295;83;21475;-53
2021/11/16 03:43:02;;;;;;;9.85;5.92;;;;;;;11.06;49.46;103494.81;1722017;82;21046;-55
2021/11/16 03:45:28;;;;;;;11.08;5.85;;;;;;;11.06;49.71;103498.72;1738608;81;20987;-53
2021/11/16 03:47:56;;;;;;;9.23;6.12;;;;;;;11.06;49.88;103492.20;1735241;81;21015;-53
2021/11/16 03:52:54;;;;;;;9.83;5.80;;;;;;;11.08;49.42;103492.23;1681873;85;21644;-53
2021/11/16 03:55:22;;;;;;;8.85;5.90;;;;;;;11.09;49.04;103494.86;1685842;85;21539;-53
2021/11/16 03:57:54;;;;;;;15.15;6.55;;;;;;;11.10;49.12;103488.81;1686082;85;21016;-54
2021/11/16 04:00:20;;;;;;;8.58;5.72;;;;;;;11.09;49.01;103485.73;1682678;85;21070;-53
2021/11/16 04:02:47;;;;;;;11.15;6.20;;;;;;;11.06;49.23;103478.30;1685979;85;20994;-53
2021/11/16 04:05:13;;;;;;;10.98;6.40;;;;;;;11.03;49.50;103488.22;1686234;85;21002;-53
2021/11/16 04:07:40;;;;;;;10.13;5.97;;;;;;;11.01;49.45;103486.02;1686031;85;21014;-53
2021/11/16 04:10:11;;;;;;;11.73;5.92;;;;;;;11.00;49.30;103484.27;1686081;85;21515;-54
2021/11/16 04:12:40;;;;;;;42.03;8.70;;;;;;;10.99;49.49;103487.71;1684783;85;21040;-53
2021/11/16 04:15:08;;;;;;;9.80;6.75;;;;;;;11.02;49.65;103494.72;1688173;85;21014;-51
2021/11/16 04:17:36;;;;;;;10.35;6.12;;;;;;;11.01;49.54;103495.55;1688305;85;21036;-53
2021/11/16 04:20:05;;;;;;;11.10;7.12;;;;;;;11.01;49.76;103495.13;1676856;85;21623;-54
2021/11/16 04:22:31;;;;;;;12.63;6.33;;;;;;;11.02;50.01;103496.91;1655747;85;21052;-58
2021/11/16 04:24:59;;;;;;;10.05;5.87;;;;;;;11.07;50.35;103504.37;1678746;85;21033;-53
2021/11/16 04:27:26;;;;;;;8.45;5.65;;;;;;;11.08;50.43;103502.23;1678593;85;21027;-53
2021/11/16 04:29:52;;;;;;;13.35;5.83;;;;;;;11.09;50.07;103501.37;1678794;85;21071;-54
2021/11/16 04:32:19;;;;;;;14.05;6.65;;;;;;;11.10;50.30;103504.45;1678725;85;20999;-54
2021/11/16 04:34:46;;;;;;;11.43;6.10;;;;;;;11.09;50.39;103511.80;1678703;85;21507;-54
2021/11/16 04:37:13;;;;;;;8.55;5.30;;;;;;;11.09;50.31;103521.33;1678645;85;21518;-52
2021/11/16 04:39:39;;;;;;;9.28;5.55;;;;;;;11.09;50.33;103512.21;1678648;85;21520;-53
2021/11/16 04:42:05;;;;;;;13.05;6.10;;;;;;;11.07;50.16;103519.12;1678532;85;21512;-53
2021/11/16 04:44:32;;;;;;;10.48;6.00;;;;;;;11.05;50.53;103512.58;1678618;85;21474;-53
2021/11/16 04:47:00;;;;;;;7.53;5.33;;;;;;;11.04;50.34;103522.56;1678536;85;21570;-53
2021/11/16 05:02:42;;;;;;;9.40;5.58;;;;;;;11.06;50.24;103533.02;1685788;85;21058;-50
2021/11/16 05:05:15;;;;;;;7.37;5.35;;;;;;;11.04;50.33;103535.59;1685937;85;21083;-53
2021/11/16 05:07:49;;;;;;;6.97;5.40;;;;;;;11.00;50.27;103537.69;1646671;87;21060;-53
2021/11/16 05:10:15;;;;;;;8.40;5.50;;;;;;;11.01;50.29;103545.05;1661424;86;21034;-58
2021/11/16 05:12:41;;;;;;;8.98;4.92;;;;;;;11.00;50.44;103538.10;1659856;86;21050;-54
2021/11/16 05:15:13;;;;;;;8.73;5.35;;;;;;;11.01;50.44;103540.73;1658265;86;21623;-54
2021/11/16 05:17:39;;;;;;;15.10;6.83;;;;;;;11.04;50.40;103543.41;1661434;86;21105;-53
2021/11/16 05:20:07;;;;;;;10.05;5.55;;;;;;;11.04;50.42;103544.72;1656850;86;21545;-53
2021/11/16 05:22:35;;;;;;;9.05;5.08;;;;;;;11.06;50.39;103541.72;1652186;86;21022;-53
2021/11/16 05:25:03;;;;;;;18.50;6.25;;;;;;;11.10;50.26;103552.66;1654621;86;21031;-53
2021/11/16 05:27:31;;;;;;;12.73;6.40;;;;;;;11.11;50.35;103543.08;1649004;86;21093;-53
2021/11/16 05:29:58;;;;;;;8.03;5.35;;;;;;;11.11;50.14;103536.57;1647818;86;20995;-55
2021/11/16 05:32:24;;;;;;;8.40;5.47;;;;;;;11.11;49.90;103547.88;1646207;86;21121;-52
2021/11/16 05:34:51;;;;;;;12.15;5.80;;;;;;;11.09;49.79;103543.48;1649645;86;21082;-50
2021/11/16 05:37:17;;;;;;;8.40;5.20;;;;;;;11.09;49.85;103544.37;1649772;86;21023;-52
2021/11/16 05:39:44;;;;;;;9.33;5.53;;;;;;;11.09;49.92;103554.80;1644049;86;21083;-53
2021/11/16 05:42:10;;;;;;;8.40;5.40;;;;;;;11.10;49.99;103553.95;1675667;83;21120;-53
2021/11/16 05:44:36;;;;;;;7.30;5.03;;;;;;;11.09;49.81;103551.30;1695978;83;20987;-53
2021/11/16 05:47:04;;;;;;;7.92;5.08;;;;;;;11.07;49.92;103546.06;1692897;83;21027;-53
2021/11/16 05:49:33;;;;;;;11.12;5.17;;;;;;;11.08;49.94;103549.14;1694553;84;20975;-53
2021/11/16 05:52:01;;;;;;;12.78;5.85;;;;;;;11.10;50.15;103558.28;1699072;83;20991;-53
2021/11/16 05:54:32;;;;;;;8.40;5.00;;;;;;;11.10;50.33;103559.17;1698127;83;21022;-53
2021/11/16 05:56:56;;;;;;;10.90;5.22;;;;;;;11.12;50.23;103558.78;1695547;83;21562;-54
2021/11/16 05:59:26;;;;;;;10.25;4.50;;;;;;;11.14;50.17;103568.81;1695639;83;21486;-53
2021/11/16 06:01:51;;;;;;;16.02;6.08;;;;;;;11.17;50.01;103570.16;1696136;83;21034;-51
2021/11/16 06:04:18;;;;;;;15.00;6.28;;;;;;;11.20;50.02;103574.14;1695950;83;21079;-55
2021/11/16 06:06:44;;;;;;;10.15;5.22;;;;;;;11.21;50.27;103566.77;1708016;83;21007;-53
2021/11/16 06:09:12;;;;;;;10.00;4.90;;;;;;;11.23;49.91;103563.77;1735847;81;21019;-55
2021/11/16 06:11:40;;;;;;;10.08;4.70;;;;;;;11.25;49.91;103570.33;1731963;81;21050;-53
2021/11/16 06:14:06;;;;;;;15.45;5.42;;;;;;;11.25;49.76;103574.24;1732246;81;21016;-53
2021/11/16 06:16:33;;;;;;;9.43;4.67;;;;;;;11.25;49.51;103578.16;1727664;81;21055;-53
2021/11/16 06:19:05;;;;;;;8.95;5.20;;;;;;;11.25;49.42;103577.70;1735106;81;20992;-51
2021/11/16 06:21:31;;;;;;;;;;;;;;;11.26;49.44;103576.88;1737604;81;21038;-55
2021/11/16 06:23:58;;;;;;;5.25;3.62;;;;;;;11.26;49.44;103571.66;1732782;81;20115;-54
2021/11/16 06:26:26;;;;;;;7.92;4.80;;;;;;;11.27;49.46;103570.80;1734145;81;20992;-54
2021/11/16 06:28:53;;;;;;;10.55;4.70;;;;;;;11.26;49.08;103574.27;1732277;82;21553;-55
2021/11/16 06:31:26;;;;;;;7.58;4.10;;;;;;;11.26;49.23;103574.27;1736140;81;21023;-54
2021/11/16 06:33:51;;;;;;;9.68;4.25;;;;;;;11.26;49.33;103570.35;1735333;81;21035;-54
2021/11/16 06:36:18;;;;;;;7.47;4.47;;;;;;;11.26;49.44;103570.35;1717216;83;20986;-54
2021/11/16 06:38:44;;;;;;;8.40;4.45;;;;;;;11.25;49.35;103571.19;1695902;84;21093;-53
2021/11/16 06:41:11;;;;;;;10.70;4.35;;;;;;;11.23;49.06;103576.80;1703436;84;21483;-53
2021/11/16 06:43:38;;;;;;;12.15;4.50;;;;;;;11.22;49.13;103580.68;1699076;84;21510;-53
2021/11/16 06:46:04;;;;;;;9.10;4.03;;;;;;;11.22;49.39;103566.34;1698117;84;21510;-54
2021/11/16 06:48:31;;;;;;;5.35;3.40;;;;;;;11.20;49.08;103565.02;1697962;84;21525;-55
2021/11/16 06:50:58;;;;;;;8.10;4.00;;;;;;;11.19;49.11;103568.45;1696456;84;20990;-55
2021/11/16 06:53:30;;;;;;;8.73;4.72;;;;;;;11.17;49.25;103574.06;1699455;84;21014;-52
2021/11/16 06:55:57;;;;;;;7.47;3.90;;;;;;;11.19;49.09;103567.16;1712886;84;21054;-52
2021/11/16 06:58:24;;;;;;;14.15;4.85;;;;;;;11.21;48.88;103569.37;1704521;83;20959;-54
2021/11/16 07:00:51;;;;;;;9.83;4.92;;;;;;;11.23;49.28;103569.42;1698047;84;21006;-58
2021/11/16 07:03:22;;;;;;;9.38;4.87;;;;;;;11.24;49.21;103568.14;1698588;83;21010;-55
2021/11/16 07:05:51;;;;;;;8.23;4.60;;;;;;;11.26;49.15;103562.95;1699439;84;21554;-53
2021/11/16 07:08:38;;;;;;;6.45;3.72;;;;;;;11.24;49.16;103570.75;1688641;83;21003;-53
2021/11/16 07:11:14;;;;;;;6.87;4.20;;;;;;;11.23;48.87;103568.97;1681583;83;21011;-53
2021/11/16 07:14:01;;;;;;;7.58;4.28;;;;;;;11.22;48.66;103567.23;1685321;83;21055;-53
2021/11/16 07:16:34;;;;;;;6.33;3.90;;;;;;;11.24;48.50;103570.75;1678542;83;21059;-53
2021/11/16 07:19:02;;;;;;;6.30;3.85;;;;;;;11.27;48.66;103569.48;1678539;84;21070;-54
2021/11/16 07:21:44;;;;;;;7.92;3.62;;;;;;;11.28;48.44;103572.56;1686700;83;21156;-51
2021/11/16 07:24:15;;;;;;;6.28;3.95;;;;;;;11.29;48.45;103565.19;1737585;81;21592;-52
2021/11/16 07:26:42;;;;;;;6.72;4.53;;;;;;;11.29;48.43;103563.88;1654515;84;21556;-54
2021/11/16 07:29:15;;;;;;;13.75;10.68;;;;;;;11.31;48.64;103559.58;1656367;85;21513;-54
2021/11/16 07:31:42;;;;;;;12.75;8.40;;;;;;;11.34;48.66;103559.65;1620982;87;21037;-52
2021/11/16 07:34:17;;;;;;;10.98;5.87;;;;;;;11.37;48.79;103562.30;1632583;86;21086;-54
2021/11/16 07:37:03;;;;;;;7.47;4.58;;;;;;;11.40;48.73;103560.19;1553255;92;21200;-56
2021/11/16 07:39:35;;;;;;;6.78;4.42;;;;;;;11.40;48.65;103562.37;1502321;95;21089;-54
2021/11/16 07:42:07;;;;;;;4.97;4.03;;;;;;;11.43;48.44;103560.26;1503843;95;21069;-55
2021/11/16 07:44:35;;;;;;;8.35;4.08;;;;;;;11.46;48.41;103565.09;1495546;95;21145;-54
2021/11/16 07:47:02;;;;;;;7.53;4.55;;;;;;;11.48;48.19;103567.31;1499201;95;21041;-53
2021/11/16 07:49:29;;;;;;;10.43;4.72;;;;;;;11.53;48.06;103560.88;1502789;95;21101;-52
2021/11/16 07:51:56;;;;;;;5.70;4.00;;;;;;;11.57;47.85;103567.02;1496937;95;21589;-53
2021/11/16 07:54:30;;;;;;;6.58;4.25;;;;;;;11.61;47.76;103571.45;1501941;95;21606;-55
2021/11/16 07:57:06;;;;;;;11.28;5.83;;;;;;;11.65;47.50;103563.71;1503232;95;21098;-52
2021/11/16 07:59:34;;;;;;;8.55;4.85;;;;;;;11.69;47.64;103556.84;1497751;95;21116;-54
2021/11/16 08:02:05;;;;;;;9.15;4.15;;;;;;;11.71;47.51;103557.75;1507103;95;21076;-56
2021/11/16 08:07:23;;;;;;;7.47;4.42;;;;;;;11.74;47.60;103555.22;1507809;95;21137;-54
2021/11/16 08:14:47;;;;;;;6.05;3.45;;;;;;;11.73;47.75;103556.94;1452344;98;21226;-52
2021/11/16 08:17:14;;;;;;;4.70;3.62;;;;;;;11.77;47.69;103555.25;1413070;101;21562;-52
2021/11/16 08:19:42;;;;;;;8.58;4.15;;;;;;;11.79;47.33;103562.67;1409984;101;21664;-57
2021/11/16 08:22:14;;;;;;;7.15;4.10;;;;;;;11.80;47.42;103561.84;1410831;100;21196;-53
2021/11/16 08:24:44;;;;;;;5.60;3.45;;;;;;;11.83;47.06;103560.61;1409638;100;21183;-54
2021/11/16 08:27:21;;;;;;;6.25;3.65;;;;;;;11.84;46.80;103551.49;1406969;101;21145;-55
2021/11/16 08:29:52;;;;;;;7.75;3.90;;;;;;;11.85;47.00;103557.59;1457281;97;21101;-54
2021/11/16 08:32:22;;;;;;;10.70;4.15;;;;;;;11.84;46.89;103560.62;1455210;95;21196;-54
2021/11/16 08:34:54;;;;;;;8.30;3.85;;;;;;;11.86;47.01;103559.34;1459201;95;21132;-56
2021/11/16 08:37:25;;;;;;;6.62;4.75;;;;;;;11.87;47.23;103558.50;1523311;92;21494;-51
2021/11/16 08:40:00;;;;;;;5.30;3.63;;;;;;;11.88;47.23;103556.33;1514399;92;21546;-52
2021/11/16 08:42:32;;;;;;;6.37;3.40;;;;;;;11.88;47.01;103561.13;1514056;94;21142;-51
2021/11/16 08:45:06;;;;;;;5.45;3.35;;;;;;;11.85;47.07;103554.98;1515851;93;21590;-51
2021/11/16 08:47:38;;;;;;;6.33;3.65;;;;;;;11.81;47.19;103551.87;1521575;93;21099;-55
2021/11/16 08:50:29;;;;;;;5.15;3.22;;;;;;;11.78;47.26;103553.11;1480307;95;21060;-54
2021/11/16 08:52:57;;;;;;;3.98;3.05;;;;;;;11.74;47.11;103548.69;1474160;95;21143;-54
2021/11/16 08:55:28;;;;;;;5.53;3.20;;;;;;;11.70;47.01;103543.86;1483846;95;21040;-55
2021/11/16 08:57:54;;;;;;;6.03;3.67;;;;;;;11.67;47.05;103544.20;1474969;95;21108;-56
2021/11/16 09:00:28;;;;;;;5.12;3.20;;;;;;;11.65;46.61;103545.88;1472745;96;21103;-54
2021/11/16 09:03:14;;;;;;;3.70;3.00;;;;;;;11.61;46.70;103536.23;1423701;101;21657;-52
2021/11/16 09:05:44;;;;;;;4.15;2.85;;;;;;;11.61;46.32;103542.76;1421754;101;21584;-54
2021/11/16 09:08:28;;;;;;;5.47;3.40;;;;;;;11.61;46.74;103549.28;1423890;100;21196;-54
2021/11/16 09:11:17;;;;;;;4.08;2.80;;;;;;;11.61;47.18;103544.95;1405830;101;21109;-54
2021/11/16 09:13:46;;;;;;;5.78;2.83;;;;;;;11.63;47.51;103546.27;1451506;96;21149;-53
2021/11/16 09:16:20;;;;;;;6.90;3.42;;;;;;;11.63;47.59;103535.42;1476156;96;21594;-51
2021/11/16 09:18:50;;;;;;;5.28;2.80;;;;;;;11.65;47.20;103529.80;1478635;96;21131;-56
2021/11/16 09:21:22;;;;;;;3.47;2.92;;;;;;;11.68;47.01;103529.02;1479626;97;21581;-53
2021/11/16 09:24:04;;;;;;;4.78;2.72;;;;;;;11.65;46.90;103532.41;1479182;96;21164;-53
2021/11/16 09:26:52;;;;;;;7.08;3.10;;;;;;;11.66;47.23;103530.69;1475863;95;21234;-53
2021/11/16 09:29:17;;;;;;;5.53;2.65;;;;;;;11.69;47.33;103517.72;1464717;97;21141;-54
2021/11/16 09:31:49;;;;;;;9.03;3.22;;;;;;;11.75;47.16;103528.27;1476602;97;21641;-51
2021/11/16 09:34:22;;;;;;;4.12;3.00;;;;;;;11.84;46.96;103531.04;1474846;97;21066;-56
2021/11/16 09:36:57;;;;;;;7.47;3.22;;;;;;;11.90;46.58;103535.05;1463223;97;21604;-55
2021/11/16 09:39:30;;;;;;;5.08;3.22;;;;;;;11.93;46.50;103533.81;1425325;100;21174;-52
2021/11/16 09:42:03;;;;;;;5.53;2.60;;;;;;;11.94;46.77;103524.70;1395456;102;21121;-54
2021/11/16 09:44:41;;;;;;;6.25;2.95;;;;;;;12.00;46.25;103522.19;1395008;102;21744;-53
2021/11/16 09:47:12;;;;;;;4.33;3.20;;;;;;;12.09;46.05;103518.85;1402699;101;21110;-51
2021/11/16 09:49:41;;;;;;;8.20;2.90;;;;;;;12.13;45.58;103511.52;1419907;100;21124;-54
2021/11/16 09:52:12;;;;;;;4.62;2.47;;;;;;;12.16;45.49;103504.61;1454270;97;21047;-53
2021/11/16 09:54:49;;;;;;;5.20;2.73;;;;;;;12.15;45.40;103504.59;1429716;99;21629;-53
2021/11/16 09:57:20;;;;;;;8.00;2.75;;;;;;;12.10;44.97;103501.02;1430164;99;21155;-54
2021/11/16 09:59:47;;;;;;;8.38;2.60;;;;;;;12.07;44.97;103508.40;1478329;94;21042;-53
2021/11/16 10:02:26;;;;;;;9.18;2.35;;;;;;;12.04;45.30;103503.53;1548398;91;21522;-54
2021/11/16 10:04:55;;;;;;;5.85;2.65;;;;;;;12.02;45.23;103503.52;1566071;91;21099;-53
2021/11/16 10:07:22;;;;;;;8.70;3.33;;;;;;;12.03;45.20;103498.77;1505009;94;21070;-53
2021/11/16 10:09:49;;;;;;;3.75;2.67;;;;;;;12.03;45.00;103501.80;1500132;94;21089;-53
2021/11/16 10:12:23;;;;;;;7.37;2.60;;;;;;;12.00;44.79;103497.81;1497124;94;21158;-54
2021/11/16 10:14:48;;;;;;;5.28;2.22;;;;;;;11.98;44.67;103500.83;1490993;95;21228;-54
2021/11/16 10:17:17;;;;;;;3.80;2.12;;;;;;;11.99;44.38;103497.38;1512790;93;21078;-53
2021/11/16 10:19:43;;;;;;;4.80;2.35;;;;;;;12.01;44.80;103493.92;1541203;91;21097;-53
2021/11/16 10:22:12;;;;;;;5.83;2.17;;;;;;;12.02;44.74;103482.64;1544038;91;21062;-52
2021/11/16 10:24:40;;;;;;;3.37;2.12;;;;;;;12.03;44.94;103479.61;1533788;91;21178;-52
2021/11/16 10:27:28;;;;;;;3.95;2.08;;;;;;;12.04;45.13;103480.05;1558356;89;21043;-53
2021/11/16 10:30:13;;;;;;;4.12;2.00;;;;;;;12.05;44.64;103479.20;1538501;92;21162;-56
2021/11/16 10:33:04;;;;;;;3.45;2.10;;;;;;;12.09;44.58;103474.06;1506025;92;21139;-51
2021/11/16 10:35:31;;;;;;;6.77;2.47;;;;;;;12.17;44.53;103468.95;1516594;93;21149;-51
2021/11/16 10:37:58;;;;;;;7.53;2.70;;;;;;;12.24;44.44;103460.36;1515243;93;21118;-55
2021/11/16 10:40:27;;;;;;;5.85;1.98;;;;;;;12.25;44.56;103463.41;1521451;92;21119;-50
2021/11/16 10:43:00;;;;;;;4.72;2.42;;;;;;;12.27;44.39;103465.61;1505002;94;21168;-53
2021/11/16 10:45:29;;;;;;;5.72;2.45;;;;;;;12.27;44.38;103460.39;1525221;92;21563;-55
2021/11/16 10:47:59;;;;;;;7.45;1.70;;;;;;;12.25;43.65;103452.96;1525546;92;21103;-55
2021/11/16 10:50:28;;;;;;;3.77;1.80;;;;;;;12.25;43.20;103458.19;1549331;91;21092;-55
2021/11/16 10:53:05;;;;;;;3.58;1.90;;;;;;;12.27;43.05;103449.95;1543888;91;21520;-51
2021/11/16 10:55:54;;;;;;;5.00;2.12;;;;;;;12.31;43.45;103451.73;1481701;95;21094;-52
2021/11/16 10:58:29;;;;;;;3.92;2.12;;;;;;;12.32;43.28;103446.98;1484667;95;21152;-53
2021/11/16 11:01:11;;;;;;;3.30;1.70;;;;;;;12.31;43.36;103439.99;1477055;96;21625;-52
2021/11/16 11:03:44;;;;;;;4.60;1.55;;;;;;;12.28;42.97;103442.58;1476847;96;21108;-56
2021/11/16 11:06:27;;;;;;;6.45;1.67;;;;;;;12.23;42.38;103440.31;1480659;96;21077;-56
2021/11/16 11:08:59;;;;;;;4.87;1.60;;;;;;;12.18;42.40;103445.89;1497883;95;21069;-55
2021/11/16 11:11:34;;;;;;;4.60;1.98;;;;;;;12.11;42.84;103437.12;1473468;96;21131;-52
2021/11/16 11:14:07;;;;;;;3.67;1.47;;;;;;;12.08;42.80;103438.36;1443457;99;21145;-53
2021/11/16 11:16:55;;;;;;;4.87;1.67;;;;;;;12.05;42.48;103440.06;1464410;97;21116;-59
2021/11/16 11:19:27;;;;;;;7.35;1.77;;;;;;;11.99;42.49;103429.53;1466105;97;21200;-55
2021/11/16 11:22:05;;;;;;;13.20;2.47;;;;;;;11.97;42.51;103431.24;1400524;102;21220;-56
2021/11/16 11:24:41;;;;;;;6.20;1.95;;;;;;;11.97;42.68;103426.03;1435559;99;21109;-54
2021/11/16 11:27:27;;;;;;;5.45;1.70;;;;;;;12.00;43.15;103432.16;1417630;100;21117;-56
2021/11/16 11:29:46;;;;;;;6.33;1.55;;;;;;;12.03;43.17;103424.81;1423208;99;21670;-55
2021/11/16 11:32:25;;;;;;;8.23;1.95;;;;;;;12.05;42.98;103432.23;1430302;99;21135;-57
2021/11/16 11:35:02;;;;;;;4.12;1.50;;;;;;;12.08;42.62;103429.65;1425781;99;21136;-57
2021/11/16 11:37:36;;;;;;;4.42;1.87;;;;;;;12.10;42.59;103425.33;1411148;98;21142;-56
2021/11/16 11:40:12;;;;;;;6.15;1.82;;;;;;;12.12;42.53;103436.25;1478965;95;21160;-54
2021/11/16 11:42:46;;;;;;;7.83;2.17;;;;;;;12.12;42.48;103421.00;1496960;94;21074;-54
2021/11/16 11:45:24;;;;;;;6.55;1.67;;;;;;;12.09;42.67;103432.30;1470709;96;21165;-57
2021/11/16 11:48:04;;;;;;;5.85;1.92;;;;;;;12.05;42.71;103425.29;1422307;99;21129;-53
2021/11/16 11:50:42;;;;;;;3.40;1.60;;;;;;;12.04;42.96;103421.33;1411109;101;21688;-54
2021/11/16 11:53:20;;;;;;;2.65;1.40;;;;;;;12.01;42.96;103407.80;1456372;97;21150;-55
2021/11/16 11:55:57;;;;;;;5.95;1.45;;;;;;;11.99;42.65;103407.35;1478142;96;21625;-57
2021/11/16 11:58:28;;;;;;;2.52;1.50;;;;;;;12.00;42.57;103411.70;1486480;96;21523;-56
2021/11/16 12:00:59;;;;;;;6.05;1.60;;;;;;;12.03;42.55;103407.84;1479355;96;21606;-55